sensor_id;sensor_type;location;lat;lon;timestamp;pressure;altitude;pressure_sealevel;temperature;humidity
65997;BME280;52765;52.258;21.052;2024-01-30T00:02:51;102394.31;;;0.25;100.00
65997;BME280;52765;52.258;21.052;2024-01-30T00:07:16;102396.81;;;0.31;100.00
65997;BME280;52765;52.258;21.052;2024-01-30T00:11:42;102393.44;;;0.24;100.00
65997;BME280;52765;52.258;21.052;2024-01-30T00:16:08;102388.22;;;0.21;100.00
65997;BME280;52765;52.258;21.052;2024-01-30T00:20:34;102390.81;;;0.23;100.00
65997;BME280;52765;52.258;21.052;2024-01-30T00:25:00;102388.19;;;0.23;100.00
65997;BME280;52765;52.258;21.052;2024-01-30T00:29:25;102383.91;;;0.17;100.00
65997;BME280;52765;52.258;21.052;2024-01-30T00:33:55;102386.56;;;0.17;100.00
65997;BME280;52765;52.258;21.052;2024-01-30T00:38:21;102384.03;;;0.12;100.00
65997;BME280;52765;52.258;21.052;2024-01-30T00:42:46;102369.91;;;0.12;100.00
65997;BME280;52765;52.258;21.052;2024-01-30T00:47:12;102370.00;;;0.09;100.00
65997;BME280;52765;52.258;21.052;2024-01-30T00:51:37;102369.25;;;0.04;100.00
65997;BME280;52765;52.258;21.052;2024-01-30T00:56:03;102367.41;;;0.06;100.00
65997;BME280;52765;52.258;21.052;2024-01-30T01:00:28;102367.41;;;0.06;100.00
65997;BME280;52765;52.258;21.052;2024-01-30T01:04:54;102372.66;;;0.09;100.00
65997;BME280;52765;52.258;21.052;2024-01-30T01:09:19;102373.56;;;0.06;100.00
65997;BME280;52765;52.258;21.052;2024-01-30T01:13:45;102378.06;;;0.04;100.00
65997;BME280;52765;52.258;21.052;2024-01-30T01:18:10;102378.16;;;-0.01;100.00
65997;BME280;52765;52.258;21.052;2024-01-30T01:22:36;102378.16;;;-0.01;100.00
65997;BME280;52765;52.258;21.052;2024-01-30T01:27:04;102378.31;;;-0.07;100.00
65997;BME280;52765;52.258;21.052;2024-01-30T01:31:31;102379.25;;;-0.08;100.00
65997;BME280;52765;52.258;21.052;2024-01-30T01:35:56;102370.31;;;-0.05;100.00
65997;BME280;52765;52.258;21.052;2024-01-30T01:40:26;102360.53;;;-0.02;100.00
65997;BME280;52765;52.258;21.052;2024-01-30T01:44:51;102356.19;;;-0.04;100.00
65997;BME280;52765;52.258;21.052;2024-01-30T01:49:17;102345.81;;;-0.13;100.00
65997;BME280;52765;52.258;21.052;2024-01-30T01:53:44;102351.03;;;-0.10;100.00
65997;BME280;52765;52.258;21.052;2024-01-30T01:58:10;102343.13;;;-0.12;100.00
65997;BME280;52765;52.258;21.052;2024-01-30T02:02:39;102351.09;;;-0.13;100.00
65997;BME280;52765;52.258;21.052;2024-01-30T02:07:04;102342.25;;;-0.12;100.00
65997;BME280;52765;52.258;21.052;2024-01-30T02:11:30;102334.34;;;-0.14;100.00
65997;BME280;52765;52.258;21.052;2024-01-30T02:15:56;102331.66;;;-0.12;100.00
65997;BME280;52765;52.258;21.052;2024-01-30T02:20:22;102331.63;;;-0.11;100.00
65997;BME280;52765;52.258;21.052;2024-01-30T02:24:48;102324.50;;;-0.09;100.00
65997;BME280;52765;52.258;21.052;2024-01-30T02:29:14;102328.81;;;-0.05;100.00
65997;BME280;52765;52.258;21.052;2024-01-30T02:33:39;102332.38;;;-0.06;100.00
65997;BME280;52765;52.258;21.052;2024-01-30T02:38:05;102338.38;;;0.01;100.00
65997;BME280;52765;52.258;21.052;2024-01-30T02:42:30;102345.44;;;0.02;100.00
65997;BME280;52765;52.258;21.052;2024-01-30T02:46:56;102334.91;;;-0.01;100.00
65997;BME280;52765;52.258;21.052;2024-01-30T02:51:21;102341.06;;;-0.01;100.00
65997;BME280;52765;52.258;21.052;2024-01-30T02:55:47;102339.50;;;-0.08;100.00
65997;BME280;52765;52.258;21.052;2024-01-30T03:00:13;102335.97;;;-0.08;100.00
65997;BME280;52765;52.258;21.052;2024-01-30T03:04:41;102337.78;;;-0.10;100.00
65997;BME280;52765;52.258;21.052;2024-01-30T03:09:06;102330.00;;;-0.16;100.00
65997;BME280;52765;52.258;21.052;2024-01-30T03:13:32;102334.34;;;-0.14;100.00
65997;BME280;52765;52.258;21.052;2024-01-30T03:17:57;102329.19;;;-0.20;100.00
65997;BME280;52765;52.258;21.052;2024-01-30T03:22:22;102323.31;;;-0.31;100.00
65997;BME280;52765;52.258;21.052;2024-01-30T03:26:48;102333.88;;;-0.30;100.00
65997;BME280;52765;52.258;21.052;2024-01-30T03:31:15;102333.94;;;-0.33;100.00
65997;BME280;52765;52.258;21.052;2024-01-30T03:35:41;102340.09;;;-0.32;100.00
65997;BME280;52765;52.258;21.052;2024-01-30T03:40:07;102335.72;;;-0.33;100.00
65997;BME280;52765;52.258;21.052;2024-01-30T03:44:32;102328.53;;;-0.28;100.00
65997;BME280;52765;52.258;21.052;2024-01-30T03:48:58;102328.59;;;-0.30;100.00
65997;BME280;52765;52.258;21.052;2024-01-30T03:53:24;102314.47;;;-0.32;100.00
65997;BME280;52765;52.258;21.052;2024-01-30T03:57:49;102311.81;;;-0.30;100.00
65997;BME280;52765;52.258;21.052;2024-01-30T04:02:15;102316.38;;;-0.37;100.00
65997;BME280;52765;52.258;21.052;2024-01-30T04:06:40;102318.97;;;-0.34;100.00
65997;BME280;52765;52.258;21.052;2024-01-30T04:11:06;102319.88;;;-0.35;100.00
65997;BME280;52765;52.258;21.052;2024-01-30T04:15:31;102316.34;;;-0.35;100.00
65997;BME280;52765;52.258;21.052;2024-01-30T04:19:58;102317.25;;;-0.35;100.00
65997;BME280;52765;52.258;21.052;2024-01-30T04:24:23;102320.84;;;-0.39;100.00
65997;BME280;52765;52.258;21.052;2024-01-30T04:28:49;102323.53;;;-0.41;100.00
65997;BME280;52765;52.258;21.052;2024-01-30T04:33:14;102323.47;;;-0.38;100.00
65997;BME280;52765;52.258;21.052;2024-01-30T04:37:40;102319.09;;;-0.40;100.00
65997;BME280;52765;52.258;21.052;2024-01-30T04:42:06;102311.28;;;-0.45;100.00
65997;BME280;52765;52.258;21.052;2024-01-30T04:46:31;102318.34;;;-0.45;100.00
65997;BME280;52765;52.258;21.052;2024-01-30T04:50:58;102306.94;;;-0.47;100.00
65997;BME280;52765;52.258;21.052;2024-01-30T04:55:23;102308.69;;;-0.46;100.00
65997;BME280;52765;52.258;21.052;2024-01-30T04:59:49;102313.94;;;-0.45;100.00
65997;BME280;52765;52.258;21.052;2024-01-30T05:04:14;102309.50;;;-0.44;100.00
65997;BME280;52765;52.258;21.052;2024-01-30T05:08:40;102314.72;;;-0.41;100.00
65997;BME280;52765;52.258;21.052;2024-01-30T05:13:06;102308.50;;;-0.40;100.00
65997;BME280;52765;52.258;21.052;2024-01-30T05:17:31;102307.66;;;-0.41;100.00
65997;BME280;52765;52.258;21.052;2024-01-30T05:21:57;102298.84;;;-0.41;100.00
65997;BME280;52765;52.258;21.052;2024-01-30T05:26:22;102304.13;;;-0.41;100.00
65997;BME280;52765;52.258;21.052;2024-01-30T05:30:48;102301.50;;;-0.41;100.00
65997;BME280;52765;52.258;21.052;2024-01-30T05:35:13;102297.97;;;-0.42;100.00
65997;BME280;52765;52.258;21.052;2024-01-30T05:39:39;102312.06;;;-0.40;100.00
65997;BME280;52765;52.258;21.052;2024-01-30T05:44:04;102304.97;;;-0.39;100.00
65997;BME280;52765;52.258;21.052;2024-01-30T05:48:30;102312.88;;;-0.38;100.00
65997;BME280;52765;52.258;21.052;2024-01-30T05:52:56;102315.66;;;-0.44;100.00
65997;BME280;52765;52.258;21.052;2024-01-30T05:57:21;102310.28;;;-0.41;100.00
65997;BME280;52765;52.258;21.052;2024-01-30T06:01:47;102310.19;;;-0.36;100.00
65997;BME280;52765;52.258;21.052;2024-01-30T06:06:13;102304.97;;;-0.39;100.00
65997;BME280;52765;52.258;21.052;2024-01-30T06:10:42;102299.66;;;-0.39;100.00
65997;BME280;52765;52.258;21.052;2024-01-30T06:15:07;102296.81;;;-0.30;100.00
65997;BME280;52765;52.258;21.052;2024-01-30T06:19:33;102294.94;;;-0.26;100.00
65997;BME280;52765;52.258;21.052;2024-01-30T06:23:59;102303.00;;;-0.31;100.00
65997;BME280;52765;52.258;21.052;2024-01-30T06:28:24;102304.78;;;-0.31;100.00
65997;BME280;52765;52.258;21.052;2024-01-30T06:32:50;102311.75;;;-0.29;100.00
65997;BME280;52765;52.258;21.052;2024-01-30T06:37:15;102310.00;;;-0.28;100.00
65997;BME280;52765;52.258;21.052;2024-01-30T06:41:41;102314.34;;;-0.26;100.00
65997;BME280;52765;52.258;21.052;2024-01-30T06:46:06;102321.22;;;-0.19;100.00
65997;BME280;52765;52.258;21.052;2024-01-30T06:50:32;102307.75;;;-0.09;100.00
65997;BME280;52765;52.258;21.052;2024-01-30T06:54:57;102310.19;;;-0.02;100.00
65997;BME280;52765;52.258;21.052;2024-01-30T06:59:23;102309.28;;;-0.01;100.00
65997;BME280;52765;52.258;21.052;2024-01-30T07:03:49;102319.69;;;0.07;100.00
65997;BME280;52765;52.258;21.052;2024-01-30T07:08:15;102309.81;;;0.12;100.00
65997;BME280;52765;52.258;21.052;2024-01-30T07:12:42;102317.56;;;0.20;100.00
65997;BME280;52765;52.258;21.052;2024-01-30T07:17:08;102319.00;;;0.32;100.00
65997;BME280;52765;52.258;21.052;2024-01-30T07:21:33;102318.44;;;0.52;100.00
65997;BME280;52765;52.258;21.052;2024-01-30T07:25:58;102313.91;;;0.87;100.00
65997;BME280;52765;52.258;21.052;2024-01-30T07:30:24;102317.47;;;1.14;100.00
65997;BME280;52765;52.258;21.052;2024-01-30T07:34:50;102315.72;;;1.13;100.00
65997;BME280;52765;52.258;21.052;2024-01-30T07:39:15;102318.09;;;1.22;100.00
65997;BME280;52765;52.258;21.052;2024-01-30T07:43:41;102323.22;;;1.28;100.00
65997;BME280;52765;52.258;21.052;2024-01-30T07:48:06;102324.75;;;1.36;100.00
65997;BME280;52765;52.258;21.052;2024-01-30T07:52:32;102307.59;;;1.46;100.00
65997;BME280;52765;52.258;21.052;2024-01-30T07:56:57;102316.19;;;1.54;100.00
65997;BME280;52765;52.258;21.052;2024-01-30T08:01:23;102312.22;;;1.67;100.00
65997;BME280;52765;52.258;21.052;2024-01-30T08:05:48;102312.72;;;1.79;99.87
65997;BME280;52765;52.258;21.052;2024-01-30T08:10:14;102309.63;;;1.91;98.68
65997;BME280;52765;52.258;21.052;2024-01-30T08:14:40;102307.44;;;2.04;97.79
65997;BME280;52765;52.258;21.052;2024-01-30T08:19:06;102292.94;;;2.13;96.70
65997;BME280;52765;52.258;21.052;2024-01-30T08:23:32;102296.94;;;2.25;95.42
65997;BME280;52765;52.258;21.052;2024-01-30T08:27:57;102297.38;;;2.37;95.65
65997;BME280;52765;52.258;21.052;2024-01-30T08:32:23;102287.22;;;2.49;93.99
65997;BME280;52765;52.258;21.052;2024-01-30T08:36:49;102289.16;;;2.67;92.96
65997;BME280;52765;52.258;21.052;2024-01-30T08:41:14;102285.97;;;2.81;92.84
65997;BME280;52765;52.258;21.052;2024-01-30T08:45:40;102298.13;;;2.88;91.24
65997;BME280;52765;52.258;21.052;2024-01-30T08:50:06;102293.19;;;3.01;90.58
65997;BME280;52765;52.258;21.052;2024-01-30T08:54:33;102296.06;;;3.19;89.83
65997;BME280;52765;52.258;21.052;2024-01-30T08:59:00;102285.84;;;3.30;89.17
65997;BME280;52765;52.258;21.052;2024-01-30T09:03:25;102294.13;;;3.44;87.76
65997;BME280;52765;52.258;21.052;2024-01-30T09:07:51;102291.94;;;3.54;86.83
65997;BME280;52765;52.258;21.052;2024-01-30T09:12:16;102286.25;;;3.63;86.09
65997;BME280;52765;52.258;21.052;2024-01-30T09:16:42;102297.22;;;3.76;84.32
65997;BME280;52765;52.258;21.052;2024-01-30T09:21:07;102286.97;;;3.87;84.20
65997;BME280;52765;52.258;21.052;2024-01-30T09:25:33;102286.53;;;3.98;84.35
65997;BME280;52765;52.258;21.052;2024-01-30T09:29:59;102278.78;;;4.13;83.19
65997;BME280;52765;52.258;21.052;2024-01-30T09:34:25;102277.28;;;4.26;80.95
65997;BME280;52765;52.258;21.052;2024-01-30T09:38:50;102276.75;;;4.38;80.41
65997;BME280;52765;52.258;21.052;2024-01-30T09:43:17;102272.78;;;4.47;80.03
65997;BME280;52765;52.258;21.052;2024-01-30T09:47:46;102276.63;;;4.60;79.14
65997;BME280;52765;52.258;21.052;2024-01-30T09:52:11;102266.19;;;4.75;78.49
65997;BME280;52765;52.258;21.052;2024-01-30T09:56:38;102263.94;;;4.85;77.81
65997;BME280;52765;52.258;21.052;2024-01-30T10:01:03;102267.50;;;5.03;77.22
65997;BME280;52765;52.258;21.052;2024-01-30T10:05:31;102263.38;;;5.14;75.72
65997;BME280;52765;52.258;21.052;2024-01-30T10:09:59;102260.63;;;5.16;74.48
65997;BME280;52765;52.258;21.052;2024-01-30T10:14:24;102255.72;;;5.26;73.07
65997;BME280;52765;52.258;21.052;2024-01-30T10:18:50;102248.03;;;5.37;71.35
65997;BME280;52765;52.258;21.052;2024-01-30T10:23:16;102247.59;;;5.46;69.72
65997;BME280;52765;52.258;21.052;2024-01-30T10:27:42;102240.75;;;5.58;68.96
65997;BME280;52765;52.258;21.052;2024-01-30T10:32:08;102239.47;;;5.65;68.61
65997;BME280;52765;52.258;21.052;2024-01-30T10:36:39;102232.56;;;5.79;67.17
65997;BME280;52765;52.258;21.052;2024-01-30T10:41:07;102223.03;;;5.90;66.70
65997;BME280;52765;52.258;21.052;2024-01-30T10:45:35;102220.59;;;6.03;65.78
65997;BME280;52765;52.258;21.052;2024-01-30T10:50:02;102215.53;;;6.15;64.99
65997;BME280;52765;52.258;21.052;2024-01-30T10:54:29;102211.41;;;6.25;64.53
65997;BME280;52765;52.258;21.052;2024-01-30T10:58:55;102215.00;;;6.41;63.24
65997;BME280;52765;52.258;21.052;2024-01-30T11:03:20;102198.72;;;6.44;62.54
65997;BME280;52765;52.258;21.052;2024-01-30T11:07:46;102194.00;;;6.50;62.73
65997;BME280;52765;52.258;21.052;2024-01-30T11:12:12;102191.66;;;6.59;62.85
65997;BME280;52765;52.258;21.052;2024-01-30T11:16:39;102190.72;;;6.60;61.91
65997;BME280;52765;52.258;21.052;2024-01-30T11:21:05;102187.63;;;6.68;61.56
65997;BME280;52765;52.258;21.052;2024-01-30T11:25:31;102181.81;;;6.76;61.52
65997;BME280;52765;52.258;21.052;2024-01-30T11:30:03;102177.13;;;6.79;60.43
65997;BME280;52765;52.258;21.052;2024-01-30T11:34:29;102164.88;;;6.91;60.48
65997;BME280;52765;52.258;21.052;2024-01-30T11:38:54;102156.38;;;6.99;60.03
65997;BME280;52765;52.258;21.052;2024-01-30T11:43:20;102159.13;;;7.13;60.09
65997;BME280;52765;52.258;21.052;2024-01-30T11:47:45;102161.47;;;7.19;59.29
65997;BME280;52765;52.258;21.052;2024-01-30T11:52:11;102156.38;;;7.29;59.11
65997;BME280;52765;52.258;21.052;2024-01-30T11:56:39;102155.25;;;7.33;58.38
65997;BME280;52765;52.258;21.052;2024-01-30T12:01:05;102153.56;;;7.47;58.29
65997;BME280;52765;52.258;21.052;2024-01-30T12:05:30;102152.91;;;7.57;57.87
65997;BME280;52765;52.258;21.052;2024-01-30T12:09:56;102147.44;;;7.59;57.14
65997;BME280;52765;52.258;21.052;2024-01-30T12:14:22;102142.66;;;7.64;56.48
65997;BME280;52765;52.258;21.052;2024-01-30T12:18:59;102137.31;;;7.78;56.51
65997;BME280;52765;52.258;21.052;2024-01-30T12:23:27;102137.91;;;7.84;56.36
65997;BME280;52765;52.258;21.052;2024-01-30T12:27:52;102137.03;;;7.83;55.21
65997;BME280;52765;52.258;21.052;2024-01-30T12:32:19;102136.38;;;7.94;55.73
65997;BME280;52765;52.258;21.052;2024-01-30T12:36:44;102110.88;;;7.87;55.62
65997;BME280;52765;52.258;21.052;2024-01-30T12:41:10;102129.06;;;8.10;55.83
65997;BME280;52765;52.258;21.052;2024-01-30T12:45:36;102124.09;;;8.19;55.09
65997;BME280;52765;52.258;21.052;2024-01-30T12:50:02;102123.50;;;8.28;54.52
65997;BME280;52765;52.258;21.052;2024-01-30T12:54:28;102111.50;;;8.33;54.42
65997;BME280;52765;52.258;21.052;2024-01-30T12:58:53;102109.13;;;8.43;54.86
65997;BME280;52765;52.258;21.052;2024-01-30T13:03:22;102115.69;;;8.52;54.21
65997;BME280;52765;52.258;21.052;2024-01-30T13:07:47;102105.34;;;8.46;53.34
65997;BME280;52765;52.258;21.052;2024-01-30T13:12:16;102110.72;;;8.46;53.40
65997;BME280;52765;52.258;21.052;2024-01-30T13:16:42;102108.72;;;8.49;53.53
65997;BME280;52765;52.258;21.052;2024-01-30T13:21:07;102121.25;;;8.49;53.33
65997;BME280;52765;52.258;21.052;2024-01-30T13:25:32;102113.31;;;8.47;53.35
65997;BME280;52765;52.258;21.052;2024-01-30T13:29:58;102111.31;;;8.51;53.36
65997;BME280;52765;52.258;21.052;2024-01-30T13:34:23;102111.19;;;8.52;53.21
65997;BME280;52765;52.258;21.052;2024-01-30T13:38:50;102110.94;;;8.43;53.13
65997;BME280;52765;52.258;21.052;2024-01-30T13:43:15;102107.13;;;8.18;53.91
65997;BME280;52765;52.258;21.052;2024-01-30T13:47:41;102105.00;;;8.09;54.61
65997;BME280;52765;52.258;21.052;2024-01-30T13:52:10;102103.41;;;8.06;54.74
65997;BME280;52765;52.258;21.052;2024-01-30T13:56:36;102105.03;;;7.80;55.23
65997;BME280;52765;52.258;21.052;2024-01-30T14:01:02;102100.44;;;7.68;55.97
65997;BME280;52765;52.258;21.052;2024-01-30T14:05:30;102099.47;;;7.69;56.13
65997;BME280;52765;52.258;21.052;2024-01-30T14:09:59;102092.50;;;7.66;56.32
65997;BME280;52765;52.258;21.052;2024-01-30T14:14:24;102095.44;;;7.62;56.38
65997;BME280;52765;52.258;21.052;2024-01-30T14:18:50;102096.91;;;7.53;56.13
65997;BME280;52765;52.258;21.052;2024-01-30T14:23:17;102098.13;;;7.47;55.62
65997;BME280;52765;52.258;21.052;2024-01-30T14:27:42;102092.34;;;7.39;55.95
65997;BME280;52765;52.258;21.052;2024-01-30T14:32:08;102092.53;;;7.21;56.40
65997;BME280;52765;52.258;21.052;2024-01-30T14:36:35;102085.78;;;7.00;57.19
65997;BME280;52765;52.258;21.052;2024-01-30T14:41:00;102082.94;;;6.87;57.06
65997;BME280;52765;52.258;21.052;2024-01-30T14:45:26;102093.50;;;6.74;57.91
65997;BME280;52765;52.258;21.052;2024-01-30T14:49:51;102080.84;;;6.62;58.48
65997;BME280;52765;52.258;21.052;2024-01-30T14:54:18;102073.31;;;6.53;59.14
65997;BME280;52765;52.258;21.052;2024-01-30T14:58:43;102065.94;;;6.42;59.69
65997;BME280;52765;52.258;21.052;2024-01-30T15:03:09;102081.81;;;6.29;60.41
65997;BME280;52765;52.258;21.052;2024-01-30T15:07:34;102067.41;;;6.16;61.52
65997;BME280;52765;52.258;21.052;2024-01-30T15:12:00;102077.66;;;6.07;61.94
65997;BME280;52765;52.258;21.052;2024-01-30T15:16:25;102079.91;;;5.99;62.74
65997;BME280;52765;52.258;21.052;2024-01-30T15:20:51;102081.25;;;5.90;62.83
65997;BME280;52765;52.258;21.052;2024-01-30T15:25:16;102078.13;;;5.82;64.07
65997;BME280;52765;52.258;21.052;2024-01-30T15:29:42;102072.25;;;5.75;64.38
65997;BME280;52765;52.258;21.052;2024-01-30T15:34:07;102074.47;;;5.67;65.25
65997;BME280;52765;52.258;21.052;2024-01-30T15:38:33;102078.28;;;5.63;65.31
65997;BME280;52765;52.258;21.052;2024-01-30T15:42:58;102072.41;;;5.56;65.75
65997;BME280;52765;52.258;21.052;2024-01-30T15:47:24;102082.38;;;5.53;65.79
65997;BME280;52765;52.258;21.052;2024-01-30T15:51:51;102069.25;;;5.48;65.90
65997;BME280;52765;52.258;21.052;2024-01-30T15:56:18;102067.59;;;5.46;65.91
65997;BME280;52765;52.258;21.052;2024-01-30T16:00:44;102063.38;;;5.42;66.58
65997;BME280;52765;52.258;21.052;2024-01-30T16:05:09;102059.28;;;5.34;66.60
65997;BME280;52765;52.258;21.052;2024-01-30T16:09:35;102063.84;;;5.32;66.96
65997;BME280;52765;52.258;21.052;2024-01-30T16:14:00;102061.41;;;5.28;67.37
65997;BME280;52765;52.258;21.052;2024-01-30T16:18:26;102060.72;;;5.24;67.90
65997;BME280;52765;52.258;21.052;2024-01-30T16:22:51;102062.78;;;5.19;68.53
65997;BME280;52765;52.258;21.052;2024-01-30T16:27:18;102060.34;;;5.14;69.42
65997;BME280;52765;52.258;21.052;2024-01-30T16:31:44;102063.19;;;5.11;69.36
65997;BME280;52765;52.258;21.052;2024-01-30T16:36:09;102058.94;;;5.07;69.97
65997;BME280;52765;52.258;21.052;2024-01-30T16:40:35;102060.19;;;5.00;70.74
65997;BME280;52765;52.258;21.052;2024-01-30T16:45:00;102054.16;;;4.96;70.74
65997;BME280;52765;52.258;21.052;2024-01-30T16:49:26;102052.66;;;4.91;71.33
65997;BME280;52765;52.258;21.052;2024-01-30T16:53:51;102058.13;;;4.88;71.92
65997;BME280;52765;52.258;21.052;2024-01-30T16:58:22;102050.31;;;4.85;72.33
65997;BME280;52765;52.258;21.052;2024-01-30T17:02:57;102046.13;;;4.79;72.74
65997;BME280;52765;52.258;21.052;2024-01-30T17:07:23;102055.19;;;4.76;72.72
65997;BME280;52765;52.258;21.052;2024-01-30T17:11:48;102046.44;;;4.73;72.89
65997;BME280;52765;52.258;21.052;2024-01-30T17:16:14;102043.06;;;4.69;73.62
65997;BME280;52765;52.258;21.052;2024-01-30T17:20:40;102036.16;;;4.65;73.74
65997;BME280;52765;52.258;21.052;2024-01-30T17:25:08;102035.44;;;4.61;73.54
65997;BME280;52765;52.258;21.052;2024-01-30T17:29:34;102025.72;;;4.60;74.00
65997;BME280;52765;52.258;21.052;2024-01-30T17:33:59;102024.22;;;4.55;73.52
65997;BME280;52765;52.258;21.052;2024-01-30T17:38:25;102017.22;;;4.52;74.15
65997;BME280;52765;52.258;21.052;2024-01-30T17:42:50;102026.16;;;4.51;73.92
65997;BME280;52765;52.258;21.052;2024-01-30T17:47:16;102027.13;;;4.50;75.01
65997;BME280;52765;52.258;21.052;2024-01-30T17:51:41;102024.59;;;4.47;75.18
65997;BME280;52765;52.258;21.052;2024-01-30T17:56:07;102021.22;;;4.43;76.24
65997;BME280;52765;52.258;21.052;2024-01-30T18:00:36;102014.13;;;4.42;75.24
65997;BME280;52765;52.258;21.052;2024-01-30T18:05:02;102014.53;;;4.35;74.39
65997;BME280;52765;52.258;21.052;2024-01-30T18:09:29;102016.53;;;4.30;75.14
65997;BME280;52765;52.258;21.052;2024-01-30T18:13:55;102013.41;;;4.21;74.92
65997;BME280;52765;52.258;21.052;2024-01-30T18:18:25;102019.69;;;4.20;75.25
65997;BME280;52765;52.258;21.052;2024-01-30T18:22:51;102012.09;;;4.11;76.01
65997;BME280;52765;52.258;21.052;2024-01-30T18:27:17;102012.19;;;4.10;76.75
65997;BME280;52765;52.258;21.052;2024-01-30T18:31:42;102004.34;;;4.06;77.56
65997;BME280;52765;52.258;21.052;2024-01-30T18:36:09;102012.56;;;4.02;77.39
65997;BME280;52765;52.258;21.052;2024-01-30T18:40:36;102013.63;;;3.98;77.93
65997;BME280;52765;52.258;21.052;2024-01-30T18:45:01;102018.41;;;3.91;78.12
65997;BME280;52765;52.258;21.052;2024-01-30T18:49:27;102009.75;;;3.86;78.39
65997;BME280;52765;52.258;21.052;2024-01-30T18:53:55;102015.16;;;3.84;78.88
65997;BME280;52765;52.258;21.052;2024-01-30T18:58:21;102023.22;;;3.83;79.44
65997;BME280;52765;52.258;21.052;2024-01-30T19:02:47;102013.72;;;3.77;79.42
65997;BME280;52765;52.258;21.052;2024-01-30T19:07:13;101995.22;;;3.74;79.35
65997;BME280;52765;52.258;21.052;2024-01-30T19:11:40;101996.25;;;3.72;79.47
65997;BME280;52765;52.258;21.052;2024-01-30T19:16:05;102003.50;;;3.68;79.95
65997;BME280;52765;52.258;21.052;2024-01-30T19:20:31;102002.78;;;3.64;80.32
65997;BME280;52765;52.258;21.052;2024-01-30T19:24:56;101993.06;;;3.63;80.82
65997;BME280;52765;52.258;21.052;2024-01-30T19:29:22;101989.69;;;3.60;80.47
65997;BME280;52765;52.258;21.052;2024-01-30T19:33:47;101985.41;;;3.56;81.12
65997;BME280;52765;52.258;21.052;2024-01-30T19:38:12;101990.88;;;3.52;80.81
65997;BME280;52765;52.258;21.052;2024-01-30T19:42:39;101992.03;;;3.47;81.14
65997;BME280;52765;52.258;21.052;2024-01-30T19:47:04;101987.72;;;3.44;81.62
65997;BME280;52765;52.258;21.052;2024-01-30T19:51:34;101982.69;;;3.38;81.71
65997;BME280;52765;52.258;21.052;2024-01-30T19:55:59;101982.69;;;3.38;82.75
65997;BME280;52765;52.258;21.052;2024-01-30T20:00:25;101973.88;;;3.36;82.96
65997;BME280;52765;52.258;21.052;2024-01-30T20:04:51;101973.09;;;3.34;82.96
65997;BME280;52765;52.258;21.052;2024-01-30T20:09:18;101981.28;;;3.29;83.69
65997;BME280;52765;52.258;21.052;2024-01-30T20:13:43;101980.44;;;3.29;83.67
65997;BME280;52765;52.258;21.052;2024-01-30T20:18:09;101968.19;;;3.25;83.76
65997;BME280;52765;52.258;21.052;2024-01-30T20:22:34;101970.94;;;3.23;83.64
65997;BME280;52765;52.258;21.052;2024-01-30T20:27:00;101981.66;;;3.22;84.38
65997;BME280;52765;52.258;21.052;2024-01-30T20:31:26;101971.13;;;3.19;84.50
65997;BME280;52765;52.258;21.052;2024-01-30T20:35:53;101965.94;;;3.15;85.83
65997;BME280;52765;52.258;21.052;2024-01-30T20:40:18;101969.69;;;3.11;85.81
65997;BME280;52765;52.258;21.052;2024-01-30T20:44:44;101971.41;;;3.12;85.37
65997;BME280;52765;52.258;21.052;2024-01-30T20:49:09;101955.34;;;3.14;86.07
65997;BME280;52765;52.258;21.052;2024-01-30T20:53:35;101957.16;;;3.13;85.56
65997;BME280;52765;52.258;21.052;2024-01-30T20:58:02;101949.44;;;3.07;86.46
65997;BME280;52765;52.258;21.052;2024-01-30T21:02:28;101943.25;;;3.07;86.88
65997;BME280;52765;52.258;21.052;2024-01-30T21:06:53;101949.31;;;3.10;86.87
65997;BME280;52765;52.258;21.052;2024-01-30T21:11:19;101959.97;;;3.10;86.66
65997;BME280;52765;52.258;21.052;2024-01-30T21:15:45;101951.13;;;3.10;87.27
65997;BME280;52765;52.258;21.052;2024-01-30T21:20:12;101947.44;;;3.12;86.58
65997;BME280;52765;52.258;21.052;2024-01-30T21:24:40;101954.63;;;3.10;86.93
65997;BME280;52765;52.258;21.052;2024-01-30T21:29:06;101945.84;;;3.08;87.29
65997;BME280;52765;52.258;21.052;2024-01-30T21:33:31;101942.16;;;3.11;87.14
65997;BME280;52765;52.258;21.052;2024-01-30T21:37:57;101950.22;;;3.09;87.36
65997;BME280;52765;52.258;21.052;2024-01-30T21:42:23;101953.72;;;3.11;87.35
65997;BME280;52765;52.258;21.052;2024-01-30T21:46:48;101953.41;;;3.18;86.48
65997;BME280;52765;52.258;21.052;2024-01-30T21:51:13;101952.69;;;3.14;86.96
65997;BME280;52765;52.258;21.052;2024-01-30T21:55:39;101948.28;;;3.13;86.35
65997;BME280;52765;52.258;21.052;2024-01-30T22:00:06;101943.78;;;3.15;86.52
65997;BME280;52765;52.258;21.052;2024-01-30T22:04:34;101952.75;;;3.12;86.74
65997;BME280;52765;52.258;21.052;2024-01-30T22:09:00;101951.06;;;3.11;86.50
65997;BME280;52765;52.258;21.052;2024-01-30T22:13:28;101947.50;;;3.11;86.88
65997;BME280;52765;52.258;21.052;2024-01-30T22:17:54;101950.94;;;3.13;86.80
65997;BME280;52765;52.258;21.052;2024-01-30T22:22:19;101959.69;;;3.17;86.20
65997;BME280;52765;52.258;21.052;2024-01-30T22:26:45;101949.91;;;3.17;85.97
65997;BME280;52765;52.258;21.052;2024-01-30T22:31:11;101946.22;;;3.20;85.71
65997;BME280;52765;52.258;21.052;2024-01-30T22:35:36;101947.88;;;3.22;85.71
65997;BME280;52765;52.258;21.052;2024-01-30T22:40:02;101949.69;;;3.22;85.43
65997;BME280;52765;52.258;21.052;2024-01-30T22:44:28;101948.88;;;3.20;84.74
65997;BME280;52765;52.258;21.052;2024-01-30T22:48:54;101946.06;;;3.23;84.38
65997;BME280;52765;52.258;21.052;2024-01-30T22:53:19;101941.78;;;3.20;83.99
65997;BME280;52765;52.258;21.052;2024-01-30T22:57:45;101932.91;;;3.20;84.49